createdAt,value
2019-04-30T00:01:18.447Z,100832.33
2019-04-30T00:03:59.373Z,100828.37
2019-04-30T00:06:37.700Z,100832.31
2019-04-30T00:09:09.850Z,100831.44
2019-04-30T00:11:46.061Z,100830.13
2019-04-30T00:14:19.616Z,100828.80
2019-04-30T00:16:52.423Z,100829.23
2019-04-30T00:19:25.876Z,100827.02
2019-04-30T00:22:00.407Z,100832.72
2019-04-30T00:24:35.452Z,100827.89
2019-04-30T00:27:08.591Z,100821.73
2019-04-30T00:29:41.482Z,100823.91
2019-04-30T00:32:15.972Z,100823.46
2019-04-30T00:34:48.980Z,100818.63
2019-04-30T00:37:22.940Z,100820.37
2019-04-30T00:39:55.853Z,100816.41
2019-04-30T00:42:29.780Z,100818.18
2019-04-30T00:45:06.702Z,100817.72
2019-04-30T00:47:39.455Z,100813.72
2019-04-30T00:50:14.848Z,100817.19
2019-04-30T00:52:48.108Z,100817.20
2019-04-30T00:55:21.043Z,100821.13
2019-04-30T00:57:55.506Z,100825.05
2019-04-30T01:00:29.792Z,100819.31
2019-04-30T01:03:09.351Z,100826.34
2019-04-30T01:05:44.493Z,100815.77
2019-04-30T01:08:21.180Z,100820.16
2019-04-30T01:10:51.649Z,100818.84
2019-04-30T01:13:24.472Z,100825.00
2019-04-30T01:15:58.809Z,100821.03
2019-04-30T01:18:32.188Z,100817.50
2019-04-30T01:21:07.848Z,100825.39
2019-04-30T01:23:43.098Z,100826.70
2019-04-30T01:26:14.632Z,100826.70
2019-04-30T01:28:49.390Z,100822.77
2019-04-30T01:31:22.517Z,100819.22
2019-04-30T01:33:55.321Z,100821.41
2019-04-30T01:36:29.381Z,100827.09
2019-04-30T01:39:02.422Z,100826.19
2019-04-30T01:41:38.662Z,100828.78
2019-04-30T01:44:12.129Z,100823.95
2019-04-30T01:46:48.271Z,100827.03
2019-04-30T01:49:20.386Z,100822.61
2019-04-30T01:51:57.331Z,100821.69
2019-04-30T01:54:29.212Z,100823.81
2019-04-30T01:57:19.913Z,100826.02
2019-04-30T02:00:20.349Z,100822.50
2019-04-30T02:02:53.337Z,100825.11
2019-04-30T02:05:26.120Z,100823.34
2019-04-30T02:07:59.064Z,100822.05
2019-04-30T02:10:31.989Z,100818.94
2019-04-30T02:13:04.914Z,100821.09
2019-04-30T02:15:39.031Z,100819.30
2019-04-30T02:18:12.210Z,100826.72
2019-04-30T02:20:45.122Z,100825.84
2019-04-30T02:23:19.599Z,100825.38
2019-04-30T02:25:52.974Z,100825.81
2019-04-30T02:28:25.806Z,100823.14
2019-04-30T02:31:00.417Z,100819.61
2019-04-30T02:33:35.150Z,100818.63
2019-04-30T02:36:29.832Z,100821.70
2019-04-30T02:39:02.727Z,100827.84
2019-04-30T02:41:40.870Z,100826.03
2019-04-30T02:44:14.640Z,100822.92
2019-04-30T02:46:50.495Z,100830.78
2019-04-30T02:49:24.237Z,100831.19
2019-04-30T02:51:59.504Z,100831.11
2019-04-30T02:54:34.740Z,100835.90
2019-04-30T02:57:14.107Z,100831.92
2019-04-30T03:00:13.257Z,100837.97
2019-04-30T03:02:46.271Z,100843.16
2019-04-30T03:05:20.563Z,100837.00
2019-04-30T03:07:53.721Z,100843.55
2019-04-30T03:10:26.691Z,100843.94
2019-04-30T03:13:00.145Z,100843.03
2019-04-30T03:15:33.105Z,100839.50
2019-04-30T03:18:24.800Z,100843.80
2019-04-30T03:21:03.640Z,100840.67
2019-04-30T03:23:38.983Z,100839.20
2019-04-30T03:26:12.973Z,100840.87
2019-04-30T03:28:45.622Z,100843.47
2019-04-30T03:31:22.587Z,100842.12
2019-04-30T03:33:53.027Z,100846.94
2019-04-30T03:36:25.873Z,100846.87
2019-04-30T03:38:59.994Z,100847.73
2019-04-30T03:41:34.365Z,100847.70
2019-04-30T03:44:18.568Z,100851.67
2019-04-30T03:46:41.684Z,100847.70
2019-04-30T03:49:14.640Z,100848.09
2019-04-30T03:51:49.699Z,100851.56
2019-04-30T03:54:22.047Z,100850.25
2019-04-30T03:56:56.578Z,100855.94
2019-04-30T03:59:30.211Z,100853.68
2019-04-30T04:02:20.944Z,100856.79
2019-04-30T04:05:10.049Z,100859.78
2019-04-30T04:07:53.033Z,100852.37
2019-04-30T04:10:43.364Z,100852.85
2019-04-30T04:13:16.257Z,100854.56
2019-04-30T04:15:49.995Z,100851.62
2019-04-30T04:18:23.172Z,100853.41
2019-04-30T04:21:08.805Z,100853.98
2019-04-30T04:23:32.832Z,100859.84
2019-04-30T04:26:05.114Z,100853.83
2019-04-30T04:28:43.119Z,100857.05
2019-04-30T04:31:12.651Z,100857.22
2019-04-30T04:33:45.489Z,100855.90
2019-04-30T04:36:20.011Z,100857.73
2019-04-30T04:38:53.214Z,100857.77
2019-04-30T04:41:26.127Z,100860.83
2019-04-30T04:44:00.344Z,100862.13
2019-04-30T04:46:33.358Z,100860.83
2019-04-30T04:49:06.216Z,100866.14
2019-04-30T04:51:42.208Z,100865.77
2019-04-30T04:54:13.605Z,100865.83
2019-04-30T04:56:46.515Z,100870.64
2019-04-30T04:59:20.154Z,100875.90
2019-04-30T05:01:53.199Z,100873.73
2019-04-30T05:04:26.132Z,100876.41
2019-04-30T05:07:00.086Z,100880.39
2019-04-30T05:09:33.153Z,100887.45
2019-04-30T05:12:06.088Z,100882.59
2019-04-30T05:14:38.982Z,100880.44
2019-04-30T05:17:11.791Z,100890.48
2019-04-30T05:19:44.749Z,100884.82
2019-04-30T05:22:19.025Z,100886.62
2019-04-30T05:24:52.341Z,100876.53
2019-04-30T05:27:25.370Z,100881.83
2019-04-30T05:29:59.582Z,100885.88
2019-04-30T05:32:32.571Z,100890.32
2019-04-30T05:35:06.057Z,100885.58
2019-04-30T05:37:39.054Z,100888.73
2019-04-30T05:40:12.901Z,100885.77
2019-04-30T05:42:46.099Z,100891.94
2019-04-30T05:45:19.384Z,100888.08
2019-04-30T05:47:52.446Z,100889.45
2019-04-30T05:50:25.388Z,100896.98
2019-04-30T05:52:59.211Z,100890.94
2019-04-30T05:55:33.743Z,100894.52
2019-04-30T05:58:09.182Z,100894.59
2019-04-30T06:00:42.792Z,100891.98
2019-04-30T06:04:33.650Z,100892.07
2019-04-30T06:07:39.644Z,100890.39
2019-04-30T06:10:59.767Z,100894.89
2019-04-30T06:13:50.575Z,100896.67
2019-04-30T06:16:25.700Z,100898.41
2019-04-30T06:18:58.726Z,100899.77
2019-04-30T06:21:32.006Z,100899.72
2019-04-30T06:24:04.810Z,100892.25
2019-04-30T06:26:39.394Z,100888.70
2019-04-30T06:29:18.943Z,100893.98
2019-04-30T06:31:51.155Z,100890.86
2019-04-30T06:34:25.270Z,100890.38
2019-04-30T06:36:59.582Z,100896.52
2019-04-30T06:39:35.937Z,100896.84
2019-04-30T06:42:12.783Z,100898.06
2019-04-30T06:44:44.341Z,100895.38
2019-04-30T06:47:32.350Z,100896.00
2019-04-30T06:49:56.465Z,100890.05
2019-04-30T06:52:35.309Z,100891.56
2019-04-30T06:55:33.683Z,100898.80
2019-04-30T06:58:16.839Z,100889.83
2019-04-30T07:01:09.505Z,100899.10
2019-04-30T07:04:23.229Z,100894.47
2019-04-30T07:07:18.298Z,100892.27
2019-04-30T07:10:53.102Z,100900.23
2019-04-30T07:13:36.823Z,100899.55
2019-04-30T07:25:35.867Z,100903.82
2019-04-30T07:28:14.655Z,100905.76
2019-04-30T07:31:11.625Z,100902.00
2019-04-30T07:33:50.658Z,100904.75
2019-04-30T07:39:14.877Z,100904.83
2019-04-30T07:42:38.214Z,100906.55
2019-04-30T07:46:20.602Z,100901.55
2019-04-30T07:49:56.521Z,100896.77
2019-04-30T07:53:18.692Z,100896.02
2019-04-30T07:57:36.186Z,100901.48
2019-04-30T08:00:35.676Z,100897.20
2019-04-30T08:09:38.370Z,100902.14
2019-04-30T09:02:15.974Z,100897.55
2019-04-30T09:05:55.047Z,100899.96
2019-04-30T09:30:13.211Z,100882.75
2019-04-30T09:34:20.735Z,100882.29
2019-04-30T09:41:13.116Z,100878.78
2019-04-30T09:54:21.982Z,100870.10
2019-04-30T10:00:39.350Z,100873.47
2019-04-30T10:06:39.834Z,100872.73
2019-04-30T10:09:50.636Z,100868.81
2019-04-30T10:13:18.421Z,100879.25
2019-04-30T10:17:57.623Z,100877.20
2019-04-30T10:21:23.696Z,100870.08
2019-04-30T10:23:41.504Z,100854.70
2019-04-30T10:26:48.404Z,100858.78
2019-04-30T10:30:03.226Z,100852.10
2019-04-30T10:32:40.920Z,100855.41
2019-04-30T10:46:59.636Z,100854.48
2019-04-30T10:50:06.873Z,100850.55
2019-04-30T11:10:45.668Z,100836.60
2019-04-30T11:20:47.057Z,100832.13
2019-04-30T11:27:37.318Z,100823.11
2019-04-30T11:37:58.407Z,100818.20
2019-04-30T11:40:49.389Z,100814.23
2019-04-30T11:44:09.297Z,100812.36
2019-04-30T11:47:11.807Z,100811.76
2019-04-30T11:50:04.299Z,100814.61
2019-04-30T11:56:58.818Z,100809.42
2019-04-30T12:08:10.982Z,100807.55
2019-04-30T12:25:12.074Z,100795.88
2019-04-30T12:28:36.947Z,100788.73
2019-04-30T12:32:11.095Z,100785.63
2019-04-30T12:35:10.050Z,100795.25
2019-04-30T12:37:52.089Z,100786.97
2019-04-30T12:40:32.397Z,100787.45
2019-04-30T12:44:08.693Z,100785.53
2019-04-30T12:46:50.690Z,100785.43
2019-04-30T12:49:56.207Z,100778.41
2019-04-30T12:52:43.648Z,100781.56
2019-04-30T12:56:00.137Z,100779.80
2019-04-30T12:58:58.029Z,100784.72
2019-04-30T13:02:09.005Z,100775.98
2019-04-30T13:05:04.051Z,100772.37
2019-04-30T13:08:13.052Z,100772.53
2019-04-30T13:11:30.829Z,100778.70
2019-04-30T13:14:10.621Z,100775.31
2019-04-30T13:17:00.189Z,100771.89
2019-04-30T13:19:41.071Z,100768.06
2019-04-30T13:22:21.101Z,100763.13
2019-04-30T13:25:03.083Z,100764.94
2019-04-30T13:28:00.499Z,100756.69
2019-04-30T13:30:32.604Z,100756.53
2019-04-30T13:33:54.676Z,100744.98
2019-04-30T13:36:41.137Z,100725.59
2019-04-30T13:39:29.261Z,100743.75
2019-04-30T13:42:29.507Z,100737.76
2019-04-30T13:45:08.949Z,100740.85
2019-04-30T13:48:10.672Z,100746.74
2019-04-30T13:50:57.326Z,100742.30
2019-04-30T13:54:22.373Z,100732.84
2019-04-30T13:57:34.503Z,100740.20
2019-04-30T14:00:41.628Z,100741.28
2019-04-30T14:06:29.759Z,100733.30
2019-04-30T14:09:42.751Z,100736.34
2019-04-30T14:16:35.305Z,100728.98
2019-04-30T14:35:35.063Z,100730.48
2019-04-30T14:38:08.990Z,100718.88
2019-04-30T14:41:01.003Z,100732.52
2019-04-30T14:43:56.022Z,100730.36
2019-04-30T14:47:12.380Z,100729.84
2019-04-30T14:50:18.587Z,100720.48
2019-04-30T14:53:30.611Z,100724.54
2019-04-30T14:57:10.845Z,100717.84
2019-04-30T14:59:39.017Z,100726.24
2019-04-30T15:06:06.408Z,100712.91
2019-04-30T15:08:55.732Z,100716.97
2019-04-30T15:11:46.389Z,100720.30
2019-04-30T15:14:41.018Z,100716.74
2019-04-30T15:17:39.221Z,100723.89
2019-04-30T15:20:14.530Z,100723.89
2019-04-30T15:22:58.720Z,100710.83
2019-04-30T15:25:38.760Z,100715.86
2019-04-30T15:28:14.907Z,100715.12
2019-04-30T15:30:58.777Z,100713.73
2019-04-30T15:34:13.206Z,100712.86
2019-04-30T15:36:59.018Z,100710.59
2019-04-30T15:39:48.986Z,100703.77
2019-04-30T15:42:55.089Z,100706.39
2019-04-30T15:45:39.661Z,100700.58
2019-04-30T15:48:40.795Z,100702.02
2019-04-30T15:51:17.962Z,100703.72
2019-04-30T15:53:52.648Z,100703.41
2019-04-30T15:56:35.361Z,100696.34
2019-04-30T15:59:28.860Z,100691.68
2019-04-30T16:02:12.872Z,100698.61
2019-04-30T16:05:11.863Z,100693.72
2019-04-30T16:08:09.588Z,100698.18
2019-04-30T16:11:00.470Z,100699.69
2019-04-30T16:13:39.536Z,100694.48
2019-04-30T16:16:13.298Z,100702.00
2019-04-30T16:18:50.215Z,100688.80
2019-04-30T16:21:23.771Z,100694.06
2019-04-30T16:24:05.781Z,100685.48
2019-04-30T16:26:49.930Z,100685.30
2019-04-30T16:29:30.997Z,100680.16
2019-04-30T16:32:04.781Z,100682.55
2019-04-30T16:34:38.864Z,100681.06
2019-04-30T16:37:19.996Z,100691.46
2019-04-30T16:40:21.962Z,100687.55
2019-04-30T16:42:58.209Z,100691.09
2019-04-30T16:45:41.559Z,100687.25
2019-04-30T16:48:14.904Z,100682.12
2019-04-30T16:50:51.132Z,100678.31
2019-04-30T16:53:25.567Z,100674.91
2019-04-30T16:55:58.687Z,100677.27
2019-04-30T16:58:50.413Z,100681.04
2019-04-30T17:01:23.678Z,100677.91
2019-04-30T17:05:11.175Z,100669.80
2019-04-30T17:07:50.623Z,100674.40
2019-04-30T17:11:01.359Z,100667.42
2019-04-30T17:13:51.426Z,100672.09
2019-04-30T17:16:26.651Z,100679.42
2019-04-30T17:19:04.625Z,100672.52
2019-04-30T17:21:42.678Z,100675.55
2019-04-30T17:24:21.882Z,100674.86
2019-04-30T17:27:19.256Z,100679.55
2019-04-30T17:29:45.819Z,100682.86
2019-04-30T17:32:19.089Z,100680.38
2019-04-30T17:34:55.422Z,100677.83
2019-04-30T17:37:31.547Z,100682.89
2019-04-30T17:40:14.022Z,100686.05
2019-04-30T17:42:47.533Z,100687.53
2019-04-30T17:45:23.686Z,100682.45
2019-04-30T17:47:58.571Z,100687.16
2019-04-30T17:50:32.352Z,100687.86
2019-04-30T17:53:09.076Z,100687.61
2019-04-30T17:55:44.960Z,100689.64
2019-04-30T17:58:20.688Z,100689.03
2019-04-30T18:00:56.505Z,100691.80
2019-04-30T18:03:30.121Z,100683.61
2019-04-30T18:06:09.025Z,100694.95
2019-04-30T18:08:43.899Z,100694.36
2019-04-30T18:11:20.080Z,100694.45
2019-04-30T18:13:53.738Z,100693.67
2019-04-30T18:16:29.950Z,100697.43
2019-04-30T18:19:10.047Z,100698.10
2019-04-30T18:21:51.086Z,100701.30
2019-04-30T18:24:46.298Z,100707.35
2019-04-30T18:27:29.646Z,100710.70
2019-04-30T18:30:12.993Z,100709.97
2019-04-30T18:34:09.397Z,100711.89
2019-04-30T18:37:21.401Z,100711.95
2019-04-30T18:47:37.513Z,100720.10
2019-04-30T18:50:29.815Z,100725.30
2019-04-30T18:53:28.441Z,100724.23
2019-04-30T18:56:19.150Z,100728.87
2019-04-30T18:59:15.009Z,100731.48
2019-04-30T19:02:19.146Z,100729.70
2019-04-30T19:04:55.113Z,100732.88
2019-04-30T19:07:37.022Z,100740.02
2019-04-30T19:11:00.514Z,100750.81
2019-04-30T19:14:24.602Z,100746.97
2019-04-30T19:18:23.438Z,100745.10
2019-04-30T19:24:56.084Z,100757.05
2019-04-30T19:27:22.526Z,100756.38
2019-04-30T19:29:59.511Z,100755.77
2019-04-30T19:32:39.081Z,100755.48
2019-04-30T19:35:15.858Z,100751.17
2019-04-30T19:37:52.000Z,100748.13
2019-04-30T19:40:28.640Z,100752.63
2019-04-30T19:43:01.870Z,100754.85
2019-04-30T19:45:36.805Z,100754.43
2019-04-30T19:48:10.084Z,100754.12
2019-04-30T19:50:43.184Z,100750.24
2019-04-30T19:53:19.936Z,100758.24
2019-04-30T19:55:51.955Z,100755.22
2019-04-30T19:58:44.878Z,100759.31
2019-04-30T20:01:01.709Z,100762.48
2019-04-30T20:03:36.409Z,100755.11
2019-04-30T20:06:09.939Z,100755.16
2019-04-30T20:08:45.900Z,100748.22
2019-04-30T20:11:18.912Z,100752.30
2019-04-30T20:13:54.633Z,100755.41
2019-04-30T20:16:27.723Z,100756.34
2019-04-30T20:19:03.859Z,100756.78
2019-04-30T20:21:48.200Z,100754.19
2019-04-30T20:24:14.778Z,100754.68
2019-04-30T20:26:50.221Z,100759.98
2019-04-30T20:29:22.901Z,100760.47
2019-04-30T20:31:56.015Z,100755.22
2019-04-30T20:34:29.404Z,100756.19
2019-04-30T20:37:02.681Z,100765.49
2019-04-30T20:40:00.539Z,100758.88
2019-04-30T20:42:33.847Z,100757.56
2019-04-30T20:45:09.071Z,100764.66
2019-04-30T20:47:42.822Z,100758.48
2019-04-30T20:50:16.327Z,100764.66
2019-04-30T20:52:49.601Z,100759.37
2019-04-30T20:55:24.256Z,100761.20
2019-04-30T20:57:59.348Z,100756.39
2019-04-30T21:00:31.977Z,100760.36
2019-04-30T21:03:05.272Z,100767.85
2019-04-30T21:05:38.637Z,100766.53
2019-04-30T21:08:11.806Z,100769.20
2019-04-30T21:10:45.152Z,100770.53
2019-04-30T21:13:19.360Z,100767.03
2019-04-30T21:15:55.327Z,100766.19
2019-04-30T21:18:30.528Z,100773.26
2019-04-30T21:21:03.165Z,100772.81
2019-04-30T21:23:36.457Z,100776.34
2019-04-30T21:26:09.468Z,100773.31
2019-04-30T21:28:43.307Z,100774.22
2019-04-30T21:31:35.650Z,100768.48
2019-04-30T21:34:15.545Z,100765.87
2019-04-30T21:36:49.604Z,100773.38
2019-04-30T21:39:22.795Z,100769.41
2019-04-30T21:41:55.992Z,100771.63
2019-04-30T21:44:29.375Z,100767.25
2019-04-30T21:47:02.711Z,100774.30
2019-04-30T21:49:36.288Z,100774.73
2019-04-30T21:52:13.590Z,100780.91
2019-04-30T21:54:48.679Z,100769.03
2019-04-30T21:57:39.168Z,100767.28
2019-04-30T22:00:18.523Z,100762.91
2019-04-30T22:02:54.201Z,100766.42
2019-04-30T22:05:31.804Z,100769.51
2019-04-30T22:08:11.949Z,100780.52
2019-04-30T22:10:55.564Z,100774.73
2019-04-30T22:13:34.628Z,100775.63
2019-04-30T22:16:10.421Z,100768.59
2019-04-30T22:18:46.857Z,100772.55
2019-04-30T22:21:30.449Z,100769.47
2019-04-30T22:24:06.105Z,100766.84
2019-04-30T22:26:41.029Z,100765.52
2019-04-30T22:29:38.426Z,100768.16
2019-04-30T22:32:00.447Z,100768.58
2019-04-30T22:34:34.296Z,100774.31
2019-04-30T22:37:08.875Z,100769.46
2019-04-30T22:39:51.847Z,100768.57
2019-04-30T22:42:42.331Z,100767.25
2019-04-30T22:45:26.679Z,100763.73
2019-04-30T22:48:00.139Z,100768.13
2019-04-30T22:50:34.526Z,100771.20
2019-04-30T22:53:07.993Z,100760.20
2019-04-30T22:55:41.308Z,100764.14
2019-04-30T22:58:15.153Z,100761.95
2019-04-30T23:00:48.558Z,100757.98
2019-04-30T23:03:26.002Z,100746.56
2019-04-30T23:06:03.653Z,100748.78
2019-04-30T23:08:37.268Z,100743.94
2019-04-30T23:11:11.167Z,100739.53
2019-04-30T23:13:47.994Z,100740.88
2019-04-30T23:16:24.096Z,100735.58
2019-04-30T23:19:02.675Z,100731.64
2019-04-30T23:24:54.212Z,100725.05
2019-04-30T23:27:29.013Z,100726.77
2019-04-30T23:30:04.857Z,100720.20
2019-04-30T23:32:54.213Z,100718.02
2019-04-30T23:35:31.077Z,100716.70
2019-04-30T23:38:17.506Z,100719.77
2019-04-30T23:40:56.558Z,100714.92
2019-04-30T23:43:35.725Z,100710.97
2019-04-30T23:46:09.189Z,100704.84
2019-04-30T23:48:48.518Z,100701.75
2019-04-30T23:54:42.239Z,100701.30
2019-04-30T23:57:16.534Z,100703.08
2019-04-30T23:59:52.996Z,100705.69
